createdAt,value
2022-09-12T00:00:23.246Z,100148.69
2022-09-12T00:02:55.124Z,100148.09
2022-09-12T00:05:22.622Z,100150.38
2022-09-12T00:07:50.560Z,100150.81
2022-09-12T00:10:22.517Z,100143.31
2022-09-12T00:12:55.037Z,100138.13
2022-09-12T00:15:22.743Z,100140.28
2022-09-12T00:17:50.289Z,100145.50
2022-09-12T00:20:22.114Z,100144.28
2022-09-12T00:22:49.769Z,100144.94
2022-09-12T00:25:17.378Z,100145.97
2022-09-12T00:27:46.451Z,100141.41
2022-09-12T00:30:14.148Z,100144.16
2022-09-12T00:32:42.359Z,100140.66
2022-09-12T00:35:09.997Z,100129.38
2022-09-12T00:37:37.680Z,100132.34
2022-09-12T00:40:05.658Z,100141.16
2022-09-12T00:42:33.271Z,100136.13
2022-09-12T00:45:00.861Z,100132.00
2022-09-12T00:47:28.769Z,100132.88
2022-09-12T00:50:08.122Z,100143.19
2022-09-12T00:52:45.320Z,100140.06
2022-09-12T00:55:20.256Z,100134.63
2022-09-12T00:57:58.264Z,100139.69
2022-09-12T01:00:26.765Z,100138.28
2022-09-12T01:02:56.968Z,100135.56
2022-09-12T01:05:24.627Z,100136.84
2022-09-12T01:07:52.363Z,100139.03
2022-09-12T01:10:20.542Z,100132.16
2022-09-12T01:12:48.210Z,100134.28
2022-09-12T01:15:16.049Z,100128.44
2022-09-12T01:18:10.856Z,100128.28
2022-09-12T01:20:51.719Z,100122.19
2022-09-12T01:23:44.061Z,100121.41
2022-09-12T01:26:32.861Z,100135.94
2022-09-12T01:29:06.569Z,100126.94
2022-09-12T01:31:57.889Z,100118.97
2022-09-12T01:34:42.971Z,100123.81
2022-09-12T01:37:19.459Z,100117.50
2022-09-12T01:40:29.604Z,100119.22
2022-09-12T01:43:21.153Z,100115.84
2022-09-12T01:45:54.563Z,100113.97
2022-09-12T01:48:28.298Z,100120.91
2022-09-12T01:51:21.600Z,100113.38
2022-09-12T01:53:55.872Z,100117.16
2022-09-12T01:56:26.618Z,100122.19
2022-09-12T01:59:44.464Z,100120.53
2022-09-12T02:02:36.545Z,100111.25
2022-09-12T02:05:10.383Z,100106.44
2022-09-12T02:07:45.285Z,100107.09
2022-09-12T02:10:13.840Z,100115.28
2022-09-12T02:12:56.048Z,100104.97
2022-09-12T02:15:25.901Z,100114.88
2022-09-12T02:17:53.409Z,100110.44
2022-09-12T02:20:47.072Z,100105.81
2022-09-12T02:23:22.627Z,100102.03
2022-09-12T02:25:53.004Z,100103.94
2022-09-12T02:28:30.672Z,100109.41
2022-09-12T02:31:13.899Z,100102.47
2022-09-12T02:33:44.196Z,100099.94
2022-09-12T02:36:33.016Z,100093.22
2022-09-12T02:39:00.543Z,100100.97
2022-09-12T02:41:28.021Z,100092.38
2022-09-12T02:43:55.543Z,100104.59
2022-09-12T02:46:28.220Z,100103.94
2022-09-12T02:48:56.441Z,100113.81
2022-09-12T02:51:24.022Z,100109.41
2022-09-12T02:53:51.956Z,100111.94
2022-09-12T02:56:24.023Z,100112.56
2022-09-12T02:58:51.668Z,100110.69
2022-09-12T03:01:36.146Z,100103.31
2022-09-12T03:04:35.331Z,100108.34
2022-09-12T03:07:05.521Z,100100.38
2022-09-12T03:09:58.223Z,100099.53
2022-09-12T03:12:52.569Z,100100.97
2022-09-12T03:15:35.649Z,100099.94
2022-09-12T03:18:21.170Z,100107.09
2022-09-12T03:21:07.473Z,100106.22
2022-09-12T03:23:39.484Z,100101.44
2022-09-12T03:26:16.072Z,100106.03
2022-09-12T03:28:44.194Z,100097.00
2022-09-12T03:31:15.604Z,100095.34
2022-09-12T03:33:42.996Z,100097.84
2022-09-12T03:36:20.752Z,100097.44
2022-09-12T03:38:48.321Z,100087.09
2022-09-12T03:41:15.852Z,100098.25
2022-09-12T03:43:43.469Z,100094.47
2022-09-12T03:46:10.961Z,100094.66
2022-09-12T03:48:40.788Z,100093.56
2022-09-12T03:51:09.852Z,100096.13
2022-09-12T03:53:37.381Z,100094.59
2022-09-12T03:56:08.844Z,100106.59
2022-09-12T03:58:36.580Z,100093.50
2022-09-12T04:01:12.868Z,100098.47
2022-09-12T04:03:41.449Z,100083.28
2022-09-12T04:06:09.974Z,100092.47
2022-09-12T04:08:37.804Z,100098.31
2022-09-12T04:11:06.531Z,100098.69
2022-09-12T04:13:35.230Z,100098.66
2022-09-12T04:16:03.268Z,100096.44
2022-09-12T04:18:31.135Z,100101.44
2022-09-12T04:20:58.581Z,100108.19
2022-09-12T04:23:26.101Z,100112.56
2022-09-12T04:25:57.461Z,100123.66
2022-09-12T04:28:25.375Z,100116.44
2022-09-12T04:30:52.939Z,100123.09
2022-09-12T04:33:20.591Z,100139.25
2022-09-12T04:35:48.387Z,100127.69
2022-09-12T04:38:15.937Z,100128.69
2022-09-12T04:40:43.460Z,100114.47
2022-09-12T04:43:14.411Z,100116.19
2022-09-12T04:45:42.271Z,100118.22
2022-09-12T04:48:09.820Z,100109.44
2022-09-12T04:50:37.279Z,100109.16
2022-09-12T04:53:04.851Z,100120.31
2022-09-12T04:55:34.364Z,100115.47
2022-09-12T04:58:02.281Z,100113.16
2022-09-12T05:00:29.888Z,100109.00
2022-09-12T05:02:57.413Z,100107.84
2022-09-12T05:05:24.929Z,100115.00
2022-09-12T05:07:53.056Z,100116.19
2022-09-12T05:10:20.532Z,100114.56
2022-09-12T05:12:48.485Z,100121.06
2022-09-12T05:15:16.208Z,100133.72
2022-09-12T05:17:43.816Z,100133.97
2022-09-12T05:20:12.958Z,100127.88
2022-09-12T05:22:40.396Z,100129.03
2022-09-12T05:25:08.760Z,100131.28
2022-09-12T05:27:36.302Z,100133.56
2022-09-12T05:30:04.737Z,100127.75
2022-09-12T05:32:32.645Z,100123.13
2022-09-12T05:35:00.499Z,100118.06
2022-09-12T05:37:28.872Z,100114.13
2022-09-12T05:39:56.677Z,100118.00
2022-09-12T05:42:24.168Z,100116.72
2022-09-12T05:44:51.845Z,100110.66
2022-09-12T05:47:19.365Z,100107.31
2022-09-12T05:49:48.126Z,100114.84
2022-09-12T05:52:16.337Z,100106.38
2022-09-12T05:54:43.807Z,100097.13
2022-09-12T05:57:11.299Z,100090.44
2022-09-12T05:59:39.451Z,100085.16
2022-09-12T06:02:07.367Z,100089.25
2022-09-12T06:04:34.926Z,100084.66
2022-09-12T06:07:02.416Z,100088.50
2022-09-12T06:09:30.231Z,100096.28
2022-09-12T06:11:57.694Z,100096.41
2022-09-12T06:14:25.525Z,100092.69
2022-09-12T06:16:53.077Z,100093.75
2022-09-12T06:19:21.777Z,100100.25
2022-09-12T06:21:49.826Z,100102.03
2022-09-12T06:24:18.006Z,100101.41
2022-09-12T06:26:45.597Z,100111.72
2022-09-12T06:29:13.478Z,100112.66
2022-09-12T06:31:41.983Z,100114.00
2022-09-12T06:34:11.561Z,100112.19
2022-09-12T06:36:46.581Z,100108.81
2022-09-12T06:39:16.327Z,100119.47
2022-09-12T06:41:44.617Z,100119.47
2022-09-12T06:44:16.818Z,100121.31
2022-09-12T06:46:44.671Z,100114.84
2022-09-12T06:49:12.195Z,100113.56
2022-09-12T06:51:42.197Z,100115.63
2022-09-12T06:54:13.062Z,100115.91
2022-09-12T06:56:40.920Z,100120.03
2022-09-12T06:59:08.731Z,100130.25
2022-09-12T07:01:36.644Z,100123.03
2022-09-12T07:04:04.798Z,100119.03
2022-09-12T07:06:39.981Z,100119.88
2022-09-12T07:09:09.929Z,100126.81
2022-09-12T07:11:38.186Z,100129.31
2022-09-12T07:14:06.622Z,100132.56
2022-09-12T07:16:37.674Z,100131.00
2022-09-12T07:19:06.741Z,100125.91
2022-09-12T07:21:39.090Z,100127.81
2022-09-12T07:24:08.803Z,100134.69
2022-09-12T07:26:36.455Z,100127.66
2022-09-12T07:29:32.251Z,100118.78
2022-09-12T07:31:52.714Z,100112.59
2022-09-12T07:34:20.184Z,100119.69
2022-09-12T07:36:47.976Z,100124.88
2022-09-12T07:39:15.444Z,100125.38
2022-09-12T07:41:43.364Z,100126.53
2022-09-12T07:44:10.838Z,100117.84
2022-09-12T07:46:40.071Z,100121.09
2022-09-12T07:49:08.466Z,100122.19
2022-09-12T07:51:36.272Z,100130.16
2022-09-12T07:54:07.930Z,100135.09
2022-09-12T07:56:38.887Z,100128.84
2022-09-12T07:59:08.272Z,100116.06
2022-09-12T08:01:35.889Z,100117.53
2022-09-12T08:04:05.113Z,100107.34
2022-09-12T08:06:34.012Z,100107.50
2022-09-12T08:09:02.043Z,100104.38
2022-09-12T08:11:30.345Z,100107.06
2022-09-12T08:13:58.334Z,100103.44
2022-09-12T08:16:27.901Z,100107.63
2022-09-12T08:18:55.595Z,100111.13
2022-09-12T08:21:24.857Z,100121.78
2022-09-12T08:23:57.221Z,100120.97
2022-09-12T08:26:25.251Z,100128.31
2022-09-12T08:28:53.538Z,100118.03
2022-09-12T08:31:22.781Z,100113.16
2022-09-12T08:33:50.531Z,100113.50
2022-09-12T08:36:19.993Z,100091.91
2022-09-12T08:38:49.594Z,100082.63
2022-09-12T08:41:32.011Z,100086.41
2022-09-12T08:43:59.710Z,100081.03
2022-09-12T08:46:41.204Z,100076.47
2022-09-12T08:49:10.069Z,100074.72
2022-09-12T08:51:38.185Z,100063.72
2022-09-12T08:54:05.743Z,100069.22
2022-09-12T08:56:35.822Z,100080.94
2022-09-12T08:59:03.411Z,100076.25
2022-09-12T09:01:32.100Z,100064.28
2022-09-12T09:04:12.316Z,100061.75
2022-09-12T09:07:01.389Z,100062.66
2022-09-12T09:09:42.535Z,100055.84
2022-09-12T09:12:19.603Z,100047.25
2022-09-12T09:14:51.557Z,100045.88
2022-09-12T09:17:26.451Z,100055.31
2022-09-12T09:20:13.569Z,100062.34
2022-09-12T09:23:16.058Z,100068.16
2022-09-12T09:25:46.249Z,100062.50
2022-09-12T09:28:19.619Z,100058.69
2022-09-12T09:30:47.224Z,100055.38
2022-09-12T09:33:25.047Z,100045.91
2022-09-12T09:35:59.375Z,100048.50
2022-09-12T09:38:42.013Z,100045.06
2022-09-12T09:41:41.442Z,100053.22
2022-09-12T09:44:09.080Z,100057.06
2022-09-12T09:46:36.798Z,100058.91
2022-09-12T09:49:05.649Z,100066.56
2022-09-12T09:51:35.850Z,100068.25
2022-09-12T09:54:21.838Z,100057.31
2022-09-12T09:56:49.636Z,100061.38
2022-09-12T09:59:18.142Z,100066.97
2022-09-12T10:01:47.407Z,100057.06
2022-09-12T10:04:22.561Z,100055.72
2022-09-12T10:07:19.445Z,100056.25
2022-09-12T10:10:19.640Z,100054.28
2022-09-12T10:12:47.322Z,100052.69
2022-09-12T10:15:19.770Z,100053.81
2022-09-12T10:17:48.537Z,100051.81
2022-09-12T10:20:35.519Z,100052.13
2022-09-12T10:23:30.827Z,100052.66
2022-09-12T10:26:01.544Z,100048.22
2022-09-12T10:28:36.150Z,100050.75
2022-09-12T10:31:03.799Z,100052.91
2022-09-12T10:33:37.529Z,100052.34
2022-09-12T10:36:05.155Z,100051.47
2022-09-12T10:38:32.805Z,100051.00
2022-09-12T10:41:06.702Z,100057.06
2022-09-12T10:43:34.345Z,100058.78
2022-09-12T10:46:20.257Z,100053.81
2022-09-12T10:48:51.817Z,100057.13
2022-09-12T10:51:25.299Z,100054.91
2022-09-12T10:53:54.726Z,100051.31
2022-09-12T10:56:23.282Z,100049.88
2022-09-12T10:59:09.220Z,100062.16
2022-09-12T11:01:45.329Z,100063.75
2022-09-12T11:04:48.591Z,100056.72
2022-09-12T11:07:40.482Z,100060.97
2022-09-12T11:10:27.155Z,100073.81
2022-09-12T11:13:06.240Z,100072.97
2022-09-12T11:15:58.175Z,100071.59
2022-09-12T11:18:28.701Z,100076.91
2022-09-12T11:21:03.088Z,100074.41
2022-09-12T11:24:15.520Z,100069.38
2022-09-12T11:26:55.370Z,100064.94
2022-09-12T11:29:46.973Z,100071.88
2022-09-12T11:32:51.445Z,100077.13
2022-09-12T11:35:41.090Z,100072.69
2022-09-12T11:38:20.369Z,100078.56
2022-09-12T11:40:50.690Z,100070.16
2022-09-12T11:43:38.372Z,100058.38
2022-09-12T11:46:24.633Z,100050.00
2022-09-12T11:48:57.600Z,100042.88
2022-09-12T11:51:32.388Z,100045.38
2022-09-12T11:54:02.770Z,100045.13
2022-09-12T11:56:30.341Z,100038.16
2022-09-12T11:59:04.381Z,100019.75
2022-09-12T12:01:40.444Z,100025.56
2022-09-12T12:04:12.292Z,100025.06
2022-09-12T12:06:52.892Z,100029.66
2022-09-12T12:09:20.416Z,100027.13
2022-09-12T12:11:53.351Z,100035.75
2022-09-12T12:14:25.925Z,100039.00
2022-09-12T12:16:53.401Z,100047.03
2022-09-12T12:19:30.730Z,100036.94
2022-09-12T12:22:12.663Z,100032.31
2022-09-12T12:24:58.840Z,100029.47
2022-09-12T12:27:48.240Z,100024.78
2022-09-12T12:30:31.108Z,100025.25
2022-09-12T12:33:11.006Z,100027.00
2022-09-12T12:35:41.788Z,100024.53
2022-09-12T12:38:31.203Z,100009.19
2022-09-12T12:41:16.942Z,100005.19
2022-09-12T12:43:47.555Z,99997.44
2022-09-12T12:46:16.437Z,99995.38
2022-09-12T12:49:05.343Z,99993.66
2022-09-12T12:51:45.735Z,99989.03
2022-09-12T12:54:51.273Z,99991.69
2022-09-12T12:57:27.806Z,99979.38
2022-09-12T13:00:06.974Z,99987.34
2022-09-12T13:02:49.223Z,99991.16
2022-09-12T13:05:19.900Z,100003.28
2022-09-12T13:07:48.365Z,99995.59
2022-09-12T13:10:28.946Z,99980.66
2022-09-12T13:12:58.176Z,99981.38
2022-09-12T13:15:36.218Z,99973.94
2022-09-12T13:18:11.322Z,99966.97
2022-09-12T13:20:48.572Z,99968.50
2022-09-12T13:23:27.829Z,99965.00
2022-09-12T13:25:57.073Z,99971.50
2022-09-12T13:28:26.501Z,99973.31
2022-09-12T13:31:01.515Z,99970.59
2022-09-12T13:33:50.997Z,99972.50
2022-09-12T13:36:52.308Z,99983.59
2022-09-12T13:39:19.717Z,99991.06
2022-09-12T13:42:25.886Z,99977.13
2022-09-12T13:44:59.125Z,99976.22
2022-09-12T13:47:35.505Z,99981.94
2022-09-12T13:50:03.800Z,99986.44
2022-09-12T13:52:33.556Z,99980.78
2022-09-12T13:55:01.166Z,99983.09
2022-09-12T13:57:37.776Z,99972.59
2022-09-12T14:00:20.694Z,99972.88
2022-09-12T14:02:49.885Z,99972.16
2022-09-12T14:05:22.731Z,99968.66
2022-09-12T14:07:58.521Z,99964.28
2022-09-12T14:10:30.436Z,99957.66
2022-09-12T14:13:20.033Z,99973.34
2022-09-12T14:15:49.120Z,99973.50
2022-09-12T14:18:29.670Z,99969.59
2022-09-12T14:21:00.936Z,99967.84
2022-09-12T14:23:31.180Z,99973.28
2022-09-12T14:26:01.198Z,99968.59
2022-09-12T14:28:30.363Z,99971.38
2022-09-12T14:31:04.076Z,99963.34
2022-09-12T14:33:59.922Z,99972.63
2022-09-12T14:36:44.499Z,99970.47
2022-09-12T14:39:30.912Z,99962.72
2022-09-12T14:42:17.756Z,99958.81
2022-09-12T14:44:59.383Z,99968.81
2022-09-12T14:47:27.882Z,99973.25
2022-09-12T14:49:55.369Z,99970.47
2022-09-12T14:52:30.767Z,99964.34
2022-09-12T14:55:03.720Z,99961.50
2022-09-12T14:57:33.854Z,99959.84
2022-09-12T15:00:14.409Z,99948.16
2022-09-12T15:02:42.845Z,99948.94
2022-09-12T15:05:10.874Z,99954.75
2022-09-12T15:07:44.142Z,99944.75
2022-09-12T15:10:28.018Z,99938.34
2022-09-12T15:13:19.715Z,99944.97
2022-09-12T15:15:49.183Z,99942.97
2022-09-12T15:18:18.350Z,99939.59
2022-09-12T15:20:47.278Z,99950.34
2022-09-12T15:23:19.192Z,99958.91
2022-09-12T15:25:47.017Z,99956.06
2022-09-12T15:28:19.431Z,99957.94
2022-09-12T15:30:47.946Z,99954.25
2022-09-12T15:33:16.641Z,99949.72
2022-09-12T15:35:44.229Z,99951.81
2022-09-12T15:38:12.342Z,99945.13
2022-09-12T15:40:40.024Z,99945.03
2022-09-12T15:43:07.543Z,99941.56
2022-09-12T15:45:35.125Z,99939.50
2022-09-12T15:48:03.528Z,99944.69
2022-09-12T15:50:31.088Z,99947.34
2022-09-12T15:52:58.690Z,99934.50
2022-09-12T15:55:29.390Z,99936.09
2022-09-12T15:57:56.973Z,99935.16
2022-09-12T16:00:24.490Z,99934.50
2022-09-12T16:02:52.727Z,99939.16
2022-09-12T16:05:23.302Z,99926.34
2022-09-12T16:07:52.569Z,99931.47
2022-09-12T16:10:26.179Z,99923.69
2022-09-12T16:12:53.732Z,99935.41
2022-09-12T16:15:23.468Z,99940.28
2022-09-12T16:17:51.058Z,99934.97
2022-09-12T16:20:19.440Z,99940.66
2022-09-12T16:22:46.968Z,99941.69
2022-09-12T16:25:14.516Z,99944.88
2022-09-12T16:27:42.582Z,99949.47
2022-09-12T16:30:10.597Z,99946.38
2022-09-12T16:32:38.532Z,99946.03
2022-09-12T16:35:06.624Z,99943.47
2022-09-12T16:37:34.771Z,99936.19
2022-09-12T16:40:03.700Z,99937.16
2022-09-12T16:42:31.446Z,99951.72
2022-09-12T16:44:58.989Z,99948.03
2022-09-12T16:47:26.562Z,99943.28
2022-09-12T16:49:54.301Z,99946.22
2022-09-12T16:52:22.089Z,99945.03
2022-09-12T16:54:49.541Z,99943.28
2022-09-12T16:57:17.159Z,99931.66
2022-09-12T16:59:44.700Z,99937.69
2022-09-12T17:02:13.731Z,99954.72
2022-09-12T17:04:41.595Z,99956.28
2022-09-12T17:07:10.569Z,99966.16
2022-09-12T17:09:38.611Z,99961.97
2022-09-12T17:12:06.245Z,99958.13
2022-09-12T17:14:37.041Z,99951.69
2022-09-12T17:17:04.896Z,99956.63
2022-09-12T17:19:33.172Z,99961.53
2022-09-12T17:22:00.669Z,99956.00
2022-09-12T17:24:28.153Z,99959.28
2022-09-12T17:26:57.205Z,99963.59
2022-09-12T17:29:24.658Z,99969.59
2022-09-12T17:31:52.474Z,99964.69
2022-09-12T17:34:20.225Z,99956.66
2022-09-12T17:36:48.601Z,99962.44
2022-09-12T17:39:16.077Z,99960.13
2022-09-12T17:41:44.080Z,99963.47
2022-09-12T17:44:12.604Z,99959.88
2022-09-12T17:46:41.437Z,99958.44
2022-09-12T17:49:12.079Z,99964.81
2022-09-12T17:51:40.525Z,99959.53
2022-09-12T17:54:14.211Z,99955.59
2022-09-12T17:56:42.900Z,99949.50
2022-09-12T17:59:13.564Z,99940.66
2022-09-12T18:01:59.805Z,99935.72
2022-09-12T18:04:27.841Z,99937.06
2022-09-12T18:06:57.705Z,99935.63
2022-09-12T18:09:25.554Z,99946.06
2022-09-12T18:11:53.373Z,99941.63
2022-09-12T18:14:21.106Z,99946.53
2022-09-12T18:16:48.693Z,99950.72
2022-09-12T18:19:16.548Z,99937.22
2022-09-12T18:21:44.114Z,99936.00
2022-09-12T18:24:11.949Z,99936.00
2022-09-12T18:26:40.320Z,99936.53
2022-09-12T18:29:07.998Z,99928.25
2022-09-12T18:31:35.871Z,99939.28
2022-09-12T18:34:05.988Z,99929.34
2022-09-12T18:36:34.678Z,99926.84
2022-09-12T18:39:02.233Z,99926.84
2022-09-12T18:41:30.075Z,99933.41
2022-09-12T18:43:58.786Z,99917.16
2022-09-12T18:46:26.857Z,99924.88
2022-09-12T18:48:58.103Z,99930.31
2022-09-12T18:51:31.505Z,99926.97
2022-09-12T18:54:01.254Z,99924.09
2022-09-12T18:56:33.036Z,99929.50
2022-09-12T18:59:01.964Z,99929.09
2022-09-12T19:01:30.927Z,99930.63
2022-09-12T19:03:59.189Z,99936.19
2022-09-12T19:06:28.492Z,99936.75
2022-09-12T19:08:56.725Z,99929.81
2022-09-12T19:11:24.792Z,99924.16
2022-09-12T19:13:53.272Z,99924.78
2022-09-12T19:16:24.890Z,99921.53
2022-09-12T19:18:52.805Z,99920.94
2022-09-12T19:21:25.193Z,99926.44
2022-09-12T19:23:53.609Z,99914.84
2022-09-12T19:26:21.327Z,99908.66
2022-09-12T19:28:48.914Z,99909.22
2022-09-12T19:31:19.071Z,99900.03
2022-09-12T19:33:46.910Z,99903.03
2022-09-12T19:36:40.787Z,99905.78
2022-09-12T19:39:04.455Z,99903.38
2022-09-12T19:41:32.136Z,99901.22
2022-09-12T19:43:59.919Z,99909.50
2022-09-12T19:46:27.485Z,99911.50
2022-09-12T19:48:55.345Z,99899.50
2022-09-12T19:51:24.258Z,99890.81
2022-09-12T19:53:52.019Z,99893.78
2022-09-12T19:56:19.885Z,99891.97
2022-09-12T19:58:51.012Z,99884.94
2022-09-12T20:01:25.043Z,99880.75
2022-09-12T20:03:53.936Z,99881.66
2022-09-12T20:06:21.397Z,99879.53
2022-09-12T20:08:49.071Z,99865.66
2022-09-12T20:11:18.353Z,99865.56
2022-09-12T20:14:02.421Z,99856.94
2022-09-12T20:16:30.363Z,99857.78
2022-09-12T20:18:59.958Z,99854.53
2022-09-12T20:21:32.717Z,99856.94
2022-09-12T20:24:03.330Z,99860.22
2022-09-12T20:26:31.224Z,99851.75
2022-09-12T20:28:58.917Z,99849.81
2022-09-12T20:31:26.578Z,99841.22
2022-09-12T20:33:54.501Z,99841.44
2022-09-12T20:36:23.105Z,99836.44
2022-09-12T20:38:56.968Z,99833.31
2022-09-12T20:41:26.702Z,99829.88
2022-09-12T20:43:55.401Z,99820.78
2022-09-12T20:46:23.434Z,99817.44
2022-09-12T20:48:51.223Z,99815.16
2022-09-12T20:51:19.837Z,99818.41
2022-09-12T20:53:47.963Z,99808.50
2022-09-12T20:56:15.624Z,99814.31
2022-09-12T20:58:44.419Z,99806.19
2022-09-12T21:01:13.399Z,99806.91
2022-09-12T21:03:41.630Z,99803.00
2022-09-12T21:06:10.042Z,99813.38
2022-09-12T21:08:37.599Z,99802.03
2022-09-12T21:11:06.324Z,99814.94
2022-09-12T21:13:33.895Z,99815.19
2022-09-12T21:16:07.464Z,99802.41
2022-09-12T21:18:35.272Z,99808.75
2022-09-12T21:21:03.311Z,99806.47
2022-09-12T21:23:31.621Z,99798.94
2022-09-12T21:26:00.190Z,99804.44
2022-09-12T21:28:27.908Z,99812.09
2022-09-12T21:30:56.179Z,99810.91
2022-09-12T21:33:23.849Z,99811.88
2022-09-12T21:35:51.379Z,99814.03
2022-09-12T21:38:19.198Z,99815.59
2022-09-12T21:40:47.255Z,99810.56
2022-09-12T21:43:15.057Z,99800.63
2022-09-12T21:45:42.625Z,99809.47
2022-09-12T21:48:13.625Z,99813.28
2022-09-12T21:50:41.153Z,99803.75
2022-09-12T21:53:08.681Z,99818.69
2022-09-12T21:55:36.937Z,99805.41
2022-09-12T21:58:04.391Z,99804.47
2022-09-12T22:00:32.139Z,99809.25
2022-09-12T22:02:59.753Z,99807.44
2022-09-12T22:05:31.720Z,99802.22
2022-09-12T22:08:00.818Z,99803.53
2022-09-12T22:10:28.562Z,99804.22
2022-09-12T22:12:56.164Z,99804.09
2022-09-12T22:15:40.208Z,99805.28
2022-09-12T22:18:08.567Z,99799.91
2022-09-12T22:20:36.460Z,99803.84
2022-09-12T22:23:25.145Z,99804.41
2022-09-12T22:25:55.714Z,99807.28
2022-09-12T22:28:23.324Z,99803.22
2022-09-12T22:30:51.927Z,99798.28
2022-09-12T22:33:19.504Z,99799.50
2022-09-12T22:35:47.140Z,99802.84
2022-09-12T22:38:14.585Z,99798.19
2022-09-12T22:40:42.481Z,99794.34
2022-09-12T22:43:10.087Z,99788.81
2022-09-12T22:45:40.925Z,99790.50
2022-09-12T22:48:09.435Z,99790.88
2022-09-12T22:50:37.529Z,99788.72
2022-09-12T22:53:07.575Z,99794.44
2022-09-12T22:55:35.296Z,99797.19
2022-09-12T22:58:03.806Z,99791.69
2022-09-12T23:00:32.125Z,99790.63
2022-09-12T23:02:59.842Z,99784.06
2022-09-12T23:05:28.205Z,99789.03
2022-09-12T23:07:55.792Z,99788.81
2022-09-12T23:10:23.475Z,99794.09
2022-09-12T23:12:51.050Z,99799.22
2022-09-12T23:15:18.700Z,99797.28
2022-09-12T23:17:46.273Z,99797.06
2022-09-12T23:20:13.751Z,99795.78
2022-09-12T23:22:41.189Z,99800.66
2022-09-12T23:25:08.884Z,99799.22
2022-09-12T23:27:36.408Z,99789.78
2022-09-12T23:30:04.197Z,99797.69
2022-09-12T23:32:32.180Z,99787.19
2022-09-12T23:34:59.708Z,99788.81
2022-09-12T23:37:27.201Z,99794.84
2022-09-12T23:39:54.981Z,99781.09
2022-09-12T23:42:22.752Z,99784.44
2022-09-12T23:44:50.899Z,99786.34
2022-09-12T23:47:18.570Z,99776.91
2022-09-12T23:49:46.073Z,99778.25
2022-09-12T23:52:13.713Z,99778.03
2022-09-12T23:54:41.776Z,99778.50
2022-09-12T23:57:09.366Z,99759.25
2022-09-12T23:59:37.071Z,99750.78
